sensor_id;sensor_type;location;lat;lon;timestamp;P1;durP1;ratioP1;P2;durP2;ratioP2
3849;SDS011;1940;51.052;13.678;2022-09-09T00:01:02;2.07;;;1.60;;
3849;SDS011;1940;51.052;13.678;2022-09-09T00:09:12;3.77;;;1.83;;
3849;SDS011;1940;51.052;13.678;2022-09-09T00:12:04;2.37;;;1.80;;
3849;SDS011;1940;51.052;13.678;2022-09-09T00:23:00;2.63;;;1.60;;
3849;SDS011;1940;51.052;13.678;2022-09-09T00:25:40;2.20;;;1.50;;
3849;SDS011;1940;51.052;13.678;2022-09-09T00:28:19;2.30;;;1.43;;
3849;SDS011;1940;51.052;13.678;2022-09-09T00:30:47;2.80;;;1.30;;
3849;SDS011;1940;51.052;13.678;2022-09-09T00:33:19;2.20;;;1.40;;
3849;SDS011;1940;51.052;13.678;2022-09-09T00:35:48;2.90;;;1.53;;
3849;SDS011;1940;51.052;13.678;2022-09-09T00:38:28;4.70;;;1.63;;
3849;SDS011;1940;51.052;13.678;2022-09-09T00:41:06;3.00;;;1.40;;
3849;SDS011;1940;51.052;13.678;2022-09-09T00:44:00;2.47;;;1.63;;
3849;SDS011;1940;51.052;13.678;2022-09-09T00:46:47;1.90;;;1.30;;
3849;SDS011;1940;51.052;13.678;2022-09-09T00:49:21;1.80;;;1.30;;
3849;SDS011;1940;51.052;13.678;2022-09-09T00:52:08;2.53;;;1.40;;
3849;SDS011;1940;51.052;13.678;2022-09-09T00:57:28;1.97;;;1.30;;
3849;SDS011;1940;51.052;13.678;2022-09-09T01:08:03;1.97;;;1.20;;
3849;SDS011;1940;51.052;13.678;2022-09-09T01:10:52;1.93;;;1.30;;
3849;SDS011;1940;51.052;13.678;2022-09-09T01:13:22;4.77;;;1.33;;
3849;SDS011;1940;51.052;13.678;2022-09-09T01:15:50;4.87;;;1.50;;
3849;SDS011;1940;51.052;13.678;2022-09-09T01:18:19;4.23;;;1.50;;
3849;SDS011;1940;51.052;13.678;2022-09-09T01:28:53;4.87;;;1.70;;
3849;SDS011;1940;51.052;13.678;2022-09-09T01:31:23;2.37;;;1.60;;
3849;SDS011;1940;51.052;13.678;2022-09-09T01:33:53;8.80;;;1.80;;
3849;SDS011;1940;51.052;13.678;2022-09-09T01:36:39;2.60;;;1.43;;
3849;SDS011;1940;51.052;13.678;2022-09-09T01:39:08;3.17;;;1.50;;
3849;SDS011;1940;51.052;13.678;2022-09-09T01:41:35;4.50;;;1.30;;
3849;SDS011;1940;51.052;13.678;2022-09-09T01:44:01;2.53;;;1.53;;
3849;SDS011;1940;51.052;13.678;2022-09-09T01:46:27;3.33;;;1.30;;
3849;SDS011;1940;51.052;13.678;2022-09-09T01:48:55;2.33;;;1.43;;
3849;SDS011;1940;51.052;13.678;2022-09-09T01:51:22;3.20;;;1.53;;
3849;SDS011;1940;51.052;13.678;2022-09-09T01:53:48;3.70;;;1.33;;
3849;SDS011;1940;51.052;13.678;2022-09-09T01:59:01;3.43;;;1.60;;
3849;SDS011;1940;51.052;13.678;2022-09-09T02:01:57;6.57;;;1.60;;
3849;SDS011;1940;51.052;13.678;2022-09-09T02:04:43;1.90;;;1.33;;
3849;SDS011;1940;51.052;13.678;2022-09-09T02:07:25;5.40;;;1.77;;
3849;SDS011;1940;51.052;13.678;2022-09-09T02:10:09;4.53;;;1.77;;
3849;SDS011;1940;51.052;13.678;2022-09-09T02:12:51;3.30;;;1.50;;
3849;SDS011;1940;51.052;13.678;2022-09-09T02:15:26;3.63;;;1.80;;
3849;SDS011;1940;51.052;13.678;2022-09-09T02:18:04;2.70;;;1.83;;
3849;SDS011;1940;51.052;13.678;2022-09-09T02:20:34;4.63;;;2.10;;
3849;SDS011;1940;51.052;13.678;2022-09-09T02:23:02;2.73;;;1.83;;
3849;SDS011;1940;51.052;13.678;2022-09-09T02:25:30;3.83;;;2.33;;
3849;SDS011;1940;51.052;13.678;2022-09-09T02:27:58;2.40;;;1.80;;
3849;SDS011;1940;51.052;13.678;2022-09-09T02:30:24;2.67;;;1.90;;
3849;SDS011;1940;51.052;13.678;2022-09-09T02:32:51;6.30;;;1.90;;
3849;SDS011;1940;51.052;13.678;2022-09-09T02:35:22;5.43;;;1.90;;
3849;SDS011;1940;51.052;13.678;2022-09-09T02:37:49;3.90;;;2.10;;
3849;SDS011;1940;51.052;13.678;2022-09-09T02:40:18;3.37;;;2.13;;
3849;SDS011;1940;51.052;13.678;2022-09-09T02:42:45;4.20;;;2.63;;
3849;SDS011;1940;51.052;13.678;2022-09-09T02:45:13;3.13;;;2.30;;
3849;SDS011;1940;51.052;13.678;2022-09-09T02:47:44;2.43;;;1.83;;
3849;SDS011;1940;51.052;13.678;2022-09-09T02:50:34;3.90;;;2.50;;
3849;SDS011;1940;51.052;13.678;2022-09-09T02:53:14;3.00;;;1.80;;
3849;SDS011;1940;51.052;13.678;2022-09-09T02:55:53;6.73;;;2.10;;
3849;SDS011;1940;51.052;13.678;2022-09-09T02:58:20;4.73;;;1.90;;
3849;SDS011;1940;51.052;13.678;2022-09-09T03:00:47;3.80;;;1.93;;
3849;SDS011;1940;51.052;13.678;2022-09-09T03:03:15;4.40;;;1.90;;
3849;SDS011;1940;51.052;13.678;2022-09-09T03:05:42;3.10;;;2.10;;
3849;SDS011;1940;51.052;13.678;2022-09-09T03:08:08;5.50;;;2.23;;
3849;SDS011;1940;51.052;13.678;2022-09-09T03:10:34;3.53;;;2.40;;
3849;SDS011;1940;51.052;13.678;2022-09-09T03:13:01;3.67;;;2.30;;
3849;SDS011;1940;51.052;13.678;2022-09-09T03:15:26;4.40;;;2.53;;
3849;SDS011;1940;51.052;13.678;2022-09-09T03:17:56;4.07;;;2.20;;
3849;SDS011;1940;51.052;13.678;2022-09-09T03:20:22;3.80;;;2.30;;
3849;SDS011;1940;51.052;13.678;2022-09-09T03:22:50;3.83;;;2.50;;
3849;SDS011;1940;51.052;13.678;2022-09-09T03:25:17;5.13;;;2.10;;
3849;SDS011;1940;51.052;13.678;2022-09-09T03:27:43;4.00;;;2.40;;
3849;SDS011;1940;51.052;13.678;2022-09-09T03:30:08;4.40;;;2.27;;
3849;SDS011;1940;51.052;13.678;2022-09-09T03:32:34;4.43;;;2.50;;
3849;SDS011;1940;51.052;13.678;2022-09-09T03:35:00;3.67;;;2.20;;
3849;SDS011;1940;51.052;13.678;2022-09-09T03:37:26;7.30;;;2.73;;
3849;SDS011;1940;51.052;13.678;2022-09-09T03:39:51;6.97;;;2.43;;
3849;SDS011;1940;51.052;13.678;2022-09-09T03:42:19;3.37;;;2.37;;
3849;SDS011;1940;51.052;13.678;2022-09-09T03:44:45;4.13;;;2.13;;
3849;SDS011;1940;51.052;13.678;2022-09-09T03:47:21;3.70;;;2.00;;
3849;SDS011;1940;51.052;13.678;2022-09-09T03:49:47;4.20;;;2.37;;
3849;SDS011;1940;51.052;13.678;2022-09-09T03:52:13;3.67;;;2.50;;
3849;SDS011;1940;51.052;13.678;2022-09-09T03:54:39;4.40;;;2.30;;
3849;SDS011;1940;51.052;13.678;2022-09-09T03:57:05;4.80;;;2.73;;
3849;SDS011;1940;51.052;13.678;2022-09-09T03:59:31;4.43;;;2.73;;
3849;SDS011;1940;51.052;13.678;2022-09-09T04:01:56;4.60;;;2.30;;
3849;SDS011;1940;51.052;13.678;2022-09-09T04:04:23;5.70;;;2.40;;
3849;SDS011;1940;51.052;13.678;2022-09-09T04:06:49;5.33;;;2.60;;
3849;SDS011;1940;51.052;13.678;2022-09-09T04:09:15;3.93;;;2.23;;
3849;SDS011;1940;51.052;13.678;2022-09-09T04:11:41;6.70;;;2.33;;
3849;SDS011;1940;51.052;13.678;2022-09-09T04:14:06;4.93;;;2.60;;
3849;SDS011;1940;51.052;13.678;2022-09-09T04:16:32;3.20;;;2.30;;
3849;SDS011;1940;51.052;13.678;2022-09-09T04:18:58;7.83;;;2.80;;
3849;SDS011;1940;51.052;13.678;2022-09-09T04:21:25;6.33;;;2.50;;
3849;SDS011;1940;51.052;13.678;2022-09-09T04:23:51;6.23;;;2.57;;
3849;SDS011;1940;51.052;13.678;2022-09-09T04:26:16;4.10;;;2.70;;
3849;SDS011;1940;51.052;13.678;2022-09-09T04:28:42;6.03;;;2.57;;
3849;SDS011;1940;51.052;13.678;2022-09-09T04:31:15;6.20;;;2.50;;
3849;SDS011;1940;51.052;13.678;2022-09-09T04:33:43;5.40;;;2.80;;
3849;SDS011;1940;51.052;13.678;2022-09-09T04:36:09;4.00;;;3.00;;
3849;SDS011;1940;51.052;13.678;2022-09-09T04:38:34;6.30;;;2.77;;
3849;SDS011;1940;51.052;13.678;2022-09-09T04:41:00;5.73;;;2.93;;
3849;SDS011;1940;51.052;13.678;2022-09-09T04:43:26;4.53;;;2.77;;
3849;SDS011;1940;51.052;13.678;2022-09-09T04:45:52;3.87;;;2.50;;
3849;SDS011;1940;51.052;13.678;2022-09-09T04:48:18;5.30;;;2.40;;
3849;SDS011;1940;51.052;13.678;2022-09-09T04:50:53;3.97;;;2.50;;
3849;SDS011;1940;51.052;13.678;2022-09-09T04:53:22;4.50;;;2.70;;
3849;SDS011;1940;51.052;13.678;2022-09-09T04:55:48;4.37;;;3.10;;
3849;SDS011;1940;51.052;13.678;2022-09-09T04:58:14;3.10;;;2.57;;
3849;SDS011;1940;51.052;13.678;2022-09-09T05:00:40;6.07;;;2.70;;
3849;SDS011;1940;51.052;13.678;2022-09-09T05:03:05;5.07;;;2.13;;
3849;SDS011;1940;51.052;13.678;2022-09-09T05:05:34;15.13;;;3.00;;
3849;SDS011;1940;51.052;13.678;2022-09-09T05:08:01;5.60;;;2.50;;
3849;SDS011;1940;51.052;13.678;2022-09-09T05:10:27;3.80;;;2.47;;
3849;SDS011;1940;51.052;13.678;2022-09-09T05:12:53;3.50;;;2.13;;
3849;SDS011;1940;51.052;13.678;2022-09-09T05:15:19;2.83;;;2.10;;
3849;SDS011;1940;51.052;13.678;2022-09-09T05:17:46;4.50;;;2.23;;
3849;SDS011;1940;51.052;13.678;2022-09-09T05:20:11;3.63;;;2.00;;
3849;SDS011;1940;51.052;13.678;2022-09-09T05:22:37;3.23;;;1.90;;
3849;SDS011;1940;51.052;13.678;2022-09-09T05:25:03;2.87;;;2.00;;
3849;SDS011;1940;51.052;13.678;2022-09-09T05:27:29;2.77;;;1.90;;
3849;SDS011;1940;51.052;13.678;2022-09-09T05:29:56;3.37;;;2.03;;
3849;SDS011;1940;51.052;13.678;2022-09-09T05:32:24;3.77;;;2.27;;
3849;SDS011;1940;51.052;13.678;2022-09-09T05:34:49;4.87;;;2.67;;
3849;SDS011;1940;51.052;13.678;2022-09-09T05:37:15;3.47;;;2.57;;
3849;SDS011;1940;51.052;13.678;2022-09-09T05:39:41;6.10;;;2.77;;
3849;SDS011;1940;51.052;13.678;2022-09-09T05:42:07;5.20;;;2.40;;
3849;SDS011;1940;51.052;13.678;2022-09-09T05:44:32;7.10;;;2.50;;
3849;SDS011;1940;51.052;13.678;2022-09-09T05:46:58;4.40;;;2.03;;
3849;SDS011;1940;51.052;13.678;2022-09-09T05:49:24;4.57;;;2.00;;
3849;SDS011;1940;51.052;13.678;2022-09-09T05:51:50;3.70;;;2.47;;
3849;SDS011;1940;51.052;13.678;2022-09-09T05:54:15;5.70;;;1.93;;
3849;SDS011;1940;51.052;13.678;2022-09-09T05:56:41;4.67;;;2.00;;
3849;SDS011;1940;51.052;13.678;2022-09-09T05:59:07;9.67;;;2.53;;
3849;SDS011;1940;51.052;13.678;2022-09-09T06:01:34;3.13;;;2.17;;
3849;SDS011;1940;51.052;13.678;2022-09-09T06:04:01;4.30;;;2.00;;
3849;SDS011;1940;51.052;13.678;2022-09-09T06:06:29;3.20;;;2.00;;
3849;SDS011;1940;51.052;13.678;2022-09-09T06:09:01;6.70;;;2.20;;
3849;SDS011;1940;51.052;13.678;2022-09-09T06:11:29;4.87;;;2.30;;
3849;SDS011;1940;51.052;13.678;2022-09-09T06:13:59;3.70;;;1.97;;
3849;SDS011;1940;51.052;13.678;2022-09-09T06:16:26;6.17;;;2.07;;
3849;SDS011;1940;51.052;13.678;2022-09-09T06:18:53;2.83;;;2.00;;
3849;SDS011;1940;51.052;13.678;2022-09-09T06:21:20;3.53;;;2.27;;
3849;SDS011;1940;51.052;13.678;2022-09-09T06:23:47;3.90;;;2.20;;
3849;SDS011;1940;51.052;13.678;2022-09-09T06:26:17;3.77;;;2.40;;
3849;SDS011;1940;51.052;13.678;2022-09-09T06:28:54;2.80;;;2.07;;
3849;SDS011;1940;51.052;13.678;2022-09-09T06:31:21;4.07;;;2.10;;
3849;SDS011;1940;51.052;13.678;2022-09-09T06:33:48;5.60;;;2.00;;
3849;SDS011;1940;51.052;13.678;2022-09-09T06:36:20;5.50;;;1.90;;
3849;SDS011;1940;51.052;13.678;2022-09-09T06:38:47;4.57;;;1.90;;
3849;SDS011;1940;51.052;13.678;2022-09-09T06:41:14;6.77;;;2.30;;
3849;SDS011;1940;51.052;13.678;2022-09-09T06:43:41;4.30;;;2.60;;
3849;SDS011;1940;51.052;13.678;2022-09-09T06:46:14;6.63;;;2.23;;
3849;SDS011;1940;51.052;13.678;2022-09-09T06:48:41;5.03;;;2.57;;
3849;SDS011;1940;51.052;13.678;2022-09-09T06:51:08;5.43;;;2.37;;
3849;SDS011;1940;51.052;13.678;2022-09-09T06:53:50;3.00;;;2.03;;
3849;SDS011;1940;51.052;13.678;2022-09-09T06:58:44;5.40;;;2.40;;
3849;SDS011;1940;51.052;13.678;2022-09-09T07:01:11;3.47;;;2.10;;
3849;SDS011;1940;51.052;13.678;2022-09-09T07:03:38;10.47;;;2.60;;
3849;SDS011;1940;51.052;13.678;2022-09-09T07:06:05;10.67;;;2.50;;
3849;SDS011;1940;51.052;13.678;2022-09-09T07:08:32;3.53;;;2.17;;
3849;SDS011;1940;51.052;13.678;2022-09-09T07:11:05;2.50;;;2.20;;
3849;SDS011;1940;51.052;13.678;2022-09-09T07:13:32;3.93;;;2.00;;
3849;SDS011;1940;51.052;13.678;2022-09-09T07:16:08;5.47;;;2.00;;
3849;SDS011;1940;51.052;13.678;2022-09-09T07:18:38;3.30;;;2.17;;
3849;SDS011;1940;51.052;13.678;2022-09-09T07:21:05;4.63;;;1.70;;
3849;SDS011;1940;51.052;13.678;2022-09-09T07:23:31;4.93;;;2.00;;
3849;SDS011;1940;51.052;13.678;2022-09-09T07:25:57;2.63;;;1.70;;
3849;SDS011;1940;51.052;13.678;2022-09-09T07:28:23;3.83;;;1.70;;
3849;SDS011;1940;51.052;13.678;2022-09-09T07:30:54;7.40;;;1.80;;
3849;SDS011;1940;51.052;13.678;2022-09-09T07:33:30;3.40;;;2.03;;
3849;SDS011;1940;51.052;13.678;2022-09-09T07:36:04;5.53;;;1.87;;
3849;SDS011;1940;51.052;13.678;2022-09-09T07:38:38;5.23;;;1.90;;
3849;SDS011;1940;51.052;13.678;2022-09-09T07:41:08;2.80;;;1.83;;
3849;SDS011;1940;51.052;13.678;2022-09-09T07:43:39;2.63;;;1.90;;
3849;SDS011;1940;51.052;13.678;2022-09-09T07:46:06;5.77;;;1.53;;
3849;SDS011;1940;51.052;13.678;2022-09-09T07:48:33;4.40;;;2.17;;
3849;SDS011;1940;51.052;13.678;2022-09-09T07:53:31;2.33;;;1.87;;
3849;SDS011;1940;51.052;13.678;2022-09-09T07:56:03;3.70;;;1.60;;
3849;SDS011;1940;51.052;13.678;2022-09-09T07:58:30;4.70;;;1.83;;
3849;SDS011;1940;51.052;13.678;2022-09-09T08:00:55;2.63;;;1.77;;
3849;SDS011;1940;51.052;13.678;2022-09-09T08:03:22;2.80;;;1.60;;
3849;SDS011;1940;51.052;13.678;2022-09-09T08:05:48;6.63;;;2.10;;
3849;SDS011;1940;51.052;13.678;2022-09-09T08:08:14;5.50;;;1.60;;
3849;SDS011;1940;51.052;13.678;2022-09-09T08:10:41;2.37;;;1.93;;
3849;SDS011;1940;51.052;13.678;2022-09-09T08:13:06;2.57;;;1.90;;
3849;SDS011;1940;51.052;13.678;2022-09-09T08:15:33;4.00;;;2.10;;
3849;SDS011;1940;51.052;13.678;2022-09-09T08:17:59;4.20;;;2.40;;
3849;SDS011;1940;51.052;13.678;2022-09-09T08:20:24;6.83;;;2.13;;
3849;SDS011;1940;51.052;13.678;2022-09-09T08:22:50;3.53;;;2.20;;
3849;SDS011;1940;51.052;13.678;2022-09-09T08:25:15;3.20;;;1.80;;
3849;SDS011;1940;51.052;13.678;2022-09-09T08:27:41;2.40;;;1.73;;
3849;SDS011;1940;51.052;13.678;2022-09-09T08:30:06;3.80;;;2.40;;
3849;SDS011;1940;51.052;13.678;2022-09-09T08:32:32;7.27;;;2.33;;
3849;SDS011;1940;51.052;13.678;2022-09-09T08:35:01;5.40;;;2.37;;
3849;SDS011;1940;51.052;13.678;2022-09-09T08:37:26;3.20;;;2.00;;
3849;SDS011;1940;51.052;13.678;2022-09-09T08:39:52;4.13;;;1.90;;
3849;SDS011;1940;51.052;13.678;2022-09-09T08:47:44;2.77;;;1.97;;
3849;SDS011;1940;51.052;13.678;2022-09-09T08:50:19;2.20;;;1.63;;
3849;SDS011;1940;51.052;13.678;2022-09-09T08:52:54;2.13;;;1.90;;
3849;SDS011;1940;51.052;13.678;2022-09-09T08:58:20;1.73;;;1.30;;
3849;SDS011;1940;51.052;13.678;2022-09-09T09:09:33;2.83;;;1.40;;
3849;SDS011;1940;51.052;13.678;2022-09-09T09:12:15;15.00;;;1.40;;
3849;SDS011;1940;51.052;13.678;2022-09-09T09:14:42;2.90;;;1.10;;
3849;SDS011;1940;51.052;13.678;2022-09-09T09:17:12;4.20;;;1.50;;
3849;SDS011;1940;51.052;13.678;2022-09-09T09:19:40;2.17;;;1.30;;
3849;SDS011;1940;51.052;13.678;2022-09-09T09:27:40;2.20;;;1.27;;
3849;SDS011;1940;51.052;13.678;2022-09-09T09:30:39;2.20;;;1.30;;
3849;SDS011;1940;51.052;13.678;2022-09-09T09:33:21;5.00;;;1.30;;
3849;SDS011;1940;51.052;13.678;2022-09-09T09:35:52;2.40;;;1.20;;
3849;SDS011;1940;51.052;13.678;2022-09-09T09:38:25;2.70;;;1.23;;
3849;SDS011;1940;51.052;13.678;2022-09-09T09:40:56;2.73;;;1.40;;
3849;SDS011;1940;51.052;13.678;2022-09-09T09:43:36;2.67;;;1.20;;
3849;SDS011;1940;51.052;13.678;2022-09-09T09:46:04;3.00;;;1.27;;
3849;SDS011;1940;51.052;13.678;2022-09-09T09:48:42;3.30;;;1.30;;
3849;SDS011;1940;51.052;13.678;2022-09-09T09:51:09;2.10;;;1.57;;
3849;SDS011;1940;51.052;13.678;2022-09-09T09:53:38;3.33;;;1.10;;
3849;SDS011;1940;51.052;13.678;2022-09-09T09:56:11;2.30;;;1.10;;
3849;SDS011;1940;51.052;13.678;2022-09-09T10:03:59;1.57;;;1.17;;
3849;SDS011;1940;51.052;13.678;2022-09-09T10:06:40;1.67;;;1.00;;
3849;SDS011;1940;51.052;13.678;2022-09-09T10:11:51;0.90;;;0.80;;
3849;SDS011;1940;51.052;13.678;2022-09-09T10:14:36;3.10;;;1.00;;
3849;SDS011;1940;51.052;13.678;2022-09-09T10:22:34;3.33;;;0.90;;
3849;SDS011;1940;51.052;13.678;2022-09-09T10:27:35;1.17;;;0.97;;
3849;SDS011;1940;51.052;13.678;2022-09-09T10:30:20;2.23;;;0.90;;
3849;SDS011;1940;51.052;13.678;2022-09-09T10:33:04;1.67;;;1.10;;
3849;SDS011;1940;51.052;13.678;2022-09-09T10:38:30;4.47;;;1.10;;
3849;SDS011;1940;51.052;13.678;2022-09-09T10:41:13;1.20;;;0.93;;
3849;SDS011;1940;51.052;13.678;2022-09-09T10:44:15;3.93;;;1.23;;
3849;SDS011;1940;51.052;13.678;2022-09-09T10:53:08;1.17;;;0.90;;
3849;SDS011;1940;51.052;13.678;2022-09-09T10:55:55;2.00;;;1.27;;
3849;SDS011;1940;51.052;13.678;2022-09-09T10:58:29;3.03;;;1.13;;
3849;SDS011;1940;51.052;13.678;2022-09-09T11:01:15;1.93;;;1.10;;
3849;SDS011;1940;51.052;13.678;2022-09-09T11:03:56;2.90;;;1.43;;
3849;SDS011;1940;51.052;13.678;2022-09-09T11:06:36;1.53;;;1.20;;
3849;SDS011;1940;51.052;13.678;2022-09-09T11:09:08;2.30;;;1.20;;
3849;SDS011;1940;51.052;13.678;2022-09-09T11:11:53;2.10;;;1.20;;
3849;SDS011;1940;51.052;13.678;2022-09-09T11:14:26;3.07;;;1.33;;
3849;SDS011;1940;51.052;13.678;2022-09-09T11:17:16;4.10;;;1.20;;
3849;SDS011;1940;51.052;13.678;2022-09-09T11:19:51;2.40;;;1.57;;
3849;SDS011;1940;51.052;13.678;2022-09-09T11:22:36;2.40;;;1.37;;
3849;SDS011;1940;51.052;13.678;2022-09-09T11:25:17;1.93;;;1.40;;
3849;SDS011;1940;51.052;13.678;2022-09-09T11:27:53;2.40;;;1.47;;
3849;SDS011;1940;51.052;13.678;2022-09-09T11:30:22;2.23;;;1.40;;
3849;SDS011;1940;51.052;13.678;2022-09-09T11:38:15;2.90;;;1.33;;
3849;SDS011;1940;51.052;13.678;2022-09-09T11:40:53;3.90;;;1.97;;
3849;SDS011;1940;51.052;13.678;2022-09-09T11:43:25;2.63;;;1.60;;
3849;SDS011;1940;51.052;13.678;2022-09-09T11:45:55;3.27;;;1.37;;
3849;SDS011;1940;51.052;13.678;2022-09-09T11:50:59;3.40;;;1.40;;
3849;SDS011;1940;51.052;13.678;2022-09-09T11:53:30;4.50;;;1.50;;
3849;SDS011;1940;51.052;13.678;2022-09-09T11:56:12;2.30;;;1.57;;
3849;SDS011;1940;51.052;13.678;2022-09-09T11:58:53;4.10;;;1.57;;
3849;SDS011;1940;51.052;13.678;2022-09-09T12:01:39;9.27;;;1.90;;
3849;SDS011;1940;51.052;13.678;2022-09-09T12:06:43;2.47;;;1.63;;
3849;SDS011;1940;51.052;13.678;2022-09-09T12:11:53;1.90;;;1.47;;
3849;SDS011;1940;51.052;13.678;2022-09-09T12:14:38;2.03;;;1.73;;
3849;SDS011;1940;51.052;13.678;2022-09-09T12:17:19;3.27;;;1.87;;
3849;SDS011;1940;51.052;13.678;2022-09-09T12:19:47;2.07;;;1.37;;
3849;SDS011;1940;51.052;13.678;2022-09-09T12:22:37;4.53;;;1.90;;
3849;SDS011;1940;51.052;13.678;2022-09-09T12:25:46;4.17;;;1.70;;
3849;SDS011;1940;51.052;13.678;2022-09-09T12:34:16;3.87;;;1.77;;
3849;SDS011;1940;51.052;13.678;2022-09-09T12:36:57;4.60;;;1.90;;
3849;SDS011;1940;51.052;13.678;2022-09-09T12:39:33;4.77;;;1.50;;
3849;SDS011;1940;51.052;13.678;2022-09-09T12:42:02;2.30;;;1.50;;
3849;SDS011;1940;51.052;13.678;2022-09-09T12:44:28;9.17;;;1.97;;
3849;SDS011;1940;51.052;13.678;2022-09-09T12:46:55;4.37;;;1.67;;
3849;SDS011;1940;51.052;13.678;2022-09-09T12:49:30;2.70;;;1.80;;
3849;SDS011;1940;51.052;13.678;2022-09-09T12:52:06;2.23;;;1.67;;
3849;SDS011;1940;51.052;13.678;2022-09-09T12:54:38;3.10;;;1.67;;
3849;SDS011;1940;51.052;13.678;2022-09-09T12:57:11;2.20;;;1.60;;
3849;SDS011;1940;51.052;13.678;2022-09-09T12:59:39;3.60;;;1.77;;
3849;SDS011;1940;51.052;13.678;2022-09-09T13:02:11;3.90;;;1.93;;
3849;SDS011;1940;51.052;13.678;2022-09-09T13:04:43;4.17;;;1.80;;
3849;SDS011;1940;51.052;13.678;2022-09-09T13:07:11;3.73;;;1.63;;
3849;SDS011;1940;51.052;13.678;2022-09-09T13:09:38;6.73;;;2.33;;
3849;SDS011;1940;51.052;13.678;2022-09-09T13:12:04;9.40;;;2.00;;
3849;SDS011;1940;51.052;13.678;2022-09-09T13:14:37;8.83;;;2.60;;
3849;SDS011;1940;51.052;13.678;2022-09-09T13:17:04;2.50;;;1.50;;
3849;SDS011;1940;51.052;13.678;2022-09-09T13:19:38;3.73;;;1.53;;
3849;SDS011;1940;51.052;13.678;2022-09-09T13:22:24;4.60;;;1.63;;
3849;SDS011;1940;51.052;13.678;2022-09-09T13:25:01;2.23;;;1.37;;
3849;SDS011;1940;51.052;13.678;2022-09-09T13:27:31;2.47;;;1.60;;
3849;SDS011;1940;51.052;13.678;2022-09-09T13:30:19;3.83;;;1.60;;
3849;SDS011;1940;51.052;13.678;2022-09-09T13:35:58;3.53;;;1.60;;
3849;SDS011;1940;51.052;13.678;2022-09-09T13:38:28;2.73;;;1.23;;
3849;SDS011;1940;51.052;13.678;2022-09-09T13:41:00;3.23;;;1.57;;
3849;SDS011;1940;51.052;13.678;2022-09-09T13:43:29;2.97;;;1.97;;
3849;SDS011;1940;51.052;13.678;2022-09-09T13:45:59;4.27;;;2.33;;
3849;SDS011;1940;51.052;13.678;2022-09-09T13:48:26;2.60;;;1.70;;
3849;SDS011;1940;51.052;13.678;2022-09-09T13:51:03;1.80;;;1.30;;
3849;SDS011;1940;51.052;13.678;2022-09-09T13:53:30;4.03;;;1.87;;
3849;SDS011;1940;51.052;13.678;2022-09-09T13:55:56;2.97;;;1.50;;
3849;SDS011;1940;51.052;13.678;2022-09-09T13:58:22;2.33;;;1.70;;
3849;SDS011;1940;51.052;13.678;2022-09-09T14:00:50;2.70;;;1.53;;
3849;SDS011;1940;51.052;13.678;2022-09-09T14:03:16;2.13;;;1.70;;
3849;SDS011;1940;51.052;13.678;2022-09-09T14:05:41;2.10;;;1.60;;
3849;SDS011;1940;51.052;13.678;2022-09-09T14:08:09;1.50;;;1.27;;
3849;SDS011;1940;51.052;13.678;2022-09-09T14:10:41;1.40;;;1.30;;
3849;SDS011;1940;51.052;13.678;2022-09-09T14:13:06;3.70;;;1.70;;
3849;SDS011;1940;51.052;13.678;2022-09-09T14:15:33;2.47;;;1.50;;
3849;SDS011;1940;51.052;13.678;2022-09-09T14:17:58;3.43;;;1.90;;
3849;SDS011;1940;51.052;13.678;2022-09-09T14:20:24;2.03;;;1.60;;
3849;SDS011;1940;51.052;13.678;2022-09-09T14:22:49;2.10;;;1.40;;
3849;SDS011;1940;51.052;13.678;2022-09-09T14:25:15;2.53;;;1.57;;
3849;SDS011;1940;51.052;13.678;2022-09-09T14:27:40;8.07;;;1.63;;
3849;SDS011;1940;51.052;13.678;2022-09-09T14:30:07;2.00;;;1.50;;
3849;SDS011;1940;51.052;13.678;2022-09-09T14:32:33;1.70;;;1.50;;
3849;SDS011;1940;51.052;13.678;2022-09-09T14:34:59;2.33;;;1.30;;
3849;SDS011;1940;51.052;13.678;2022-09-09T14:37:24;3.43;;;1.50;;
3849;SDS011;1940;51.052;13.678;2022-09-09T14:39:50;1.43;;;1.20;;
3849;SDS011;1940;51.052;13.678;2022-09-09T14:42:16;2.70;;;1.87;;
3849;SDS011;1940;51.052;13.678;2022-09-09T14:44:42;3.23;;;1.70;;
3849;SDS011;1940;51.052;13.678;2022-09-09T14:47:07;2.07;;;1.40;;
3849;SDS011;1940;51.052;13.678;2022-09-09T14:49:34;2.77;;;1.30;;
3849;SDS011;1940;51.052;13.678;2022-09-09T14:51:59;2.70;;;1.50;;
3849;SDS011;1940;51.052;13.678;2022-09-09T14:54:25;2.33;;;1.30;;
3849;SDS011;1940;51.052;13.678;2022-09-09T14:56:51;1.47;;;1.00;;
3849;SDS011;1940;51.052;13.678;2022-09-09T14:59:17;5.07;;;2.00;;
3849;SDS011;1940;51.052;13.678;2022-09-09T15:01:43;2.80;;;1.53;;
3849;SDS011;1940;51.052;13.678;2022-09-09T15:04:10;3.27;;;1.80;;
3849;SDS011;1940;51.052;13.678;2022-09-09T15:06:37;1.70;;;1.13;;
3849;SDS011;1940;51.052;13.678;2022-09-09T15:09:05;1.47;;;1.20;;
3849;SDS011;1940;51.052;13.678;2022-09-09T15:11:31;2.13;;;1.20;;
3849;SDS011;1940;51.052;13.678;2022-09-09T15:14:02;5.10;;;1.40;;
3849;SDS011;1940;51.052;13.678;2022-09-09T15:16:28;1.93;;;1.10;;
3849;SDS011;1940;51.052;13.678;2022-09-09T15:18:56;1.93;;;1.23;;
3849;SDS011;1940;51.052;13.678;2022-09-09T15:21:23;2.17;;;1.20;;
3849;SDS011;1940;51.052;13.678;2022-09-09T15:23:50;1.60;;;1.27;;
3849;SDS011;1940;51.052;13.678;2022-09-09T15:26:16;2.13;;;1.27;;
3849;SDS011;1940;51.052;13.678;2022-09-09T15:28:43;1.77;;;1.20;;
3849;SDS011;1940;51.052;13.678;2022-09-09T15:31:14;1.53;;;1.10;;
3849;SDS011;1940;51.052;13.678;2022-09-09T15:33:51;4.90;;;1.20;;
3849;SDS011;1940;51.052;13.678;2022-09-09T15:36:20;2.80;;;1.50;;
3849;SDS011;1940;51.052;13.678;2022-09-09T15:38:47;10.70;;;1.50;;
3849;SDS011;1940;51.052;13.678;2022-09-09T15:41:13;1.07;;;0.90;;
3849;SDS011;1940;51.052;13.678;2022-09-09T15:43:46;3.33;;;1.10;;
3849;SDS011;1940;51.052;13.678;2022-09-09T15:49:08;2.57;;;1.13;;
3849;SDS011;1940;51.052;13.678;2022-09-09T15:51:38;1.40;;;1.30;;
3849;SDS011;1940;51.052;13.678;2022-09-09T15:54:06;1.30;;;1.20;;
3849;SDS011;1940;51.052;13.678;2022-09-09T15:56:32;2.50;;;1.37;;
3849;SDS011;1940;51.052;13.678;2022-09-09T15:58:58;2.73;;;1.50;;
3849;SDS011;1940;51.052;13.678;2022-09-09T16:01:25;1.93;;;1.40;;
3849;SDS011;1940;51.052;13.678;2022-09-09T16:03:51;3.27;;;1.50;;
3849;SDS011;1940;51.052;13.678;2022-09-09T16:06:18;2.40;;;1.30;;
3849;SDS011;1940;51.052;13.678;2022-09-09T16:08:46;2.87;;;1.40;;
3849;SDS011;1940;51.052;13.678;2022-09-09T16:11:15;2.07;;;1.50;;
3849;SDS011;1940;51.052;13.678;2022-09-09T16:13:46;2.00;;;1.60;;
3849;SDS011;1940;51.052;13.678;2022-09-09T16:16:16;3.23;;;1.60;;
3849;SDS011;1940;51.052;13.678;2022-09-09T16:18:48;1.47;;;1.30;;
3849;SDS011;1940;51.052;13.678;2022-09-09T16:23:44;2.70;;;1.53;;
3849;SDS011;1940;51.052;13.678;2022-09-09T16:26:13;1.90;;;1.50;;
3849;SDS011;1940;51.052;13.678;2022-09-09T16:28:40;3.10;;;1.77;;
3849;SDS011;1940;51.052;13.678;2022-09-09T16:31:06;2.63;;;1.63;;
3849;SDS011;1940;51.052;13.678;2022-09-09T16:33:34;4.57;;;1.70;;
3849;SDS011;1940;51.052;13.678;2022-09-09T16:36:11;2.87;;;1.53;;
3849;SDS011;1940;51.052;13.678;2022-09-09T16:38:39;2.10;;;1.70;;
3849;SDS011;1940;51.052;13.678;2022-09-09T16:41:06;4.40;;;2.00;;
3849;SDS011;1940;51.052;13.678;2022-09-09T16:43:32;7.40;;;2.00;;
3849;SDS011;1940;51.052;13.678;2022-09-09T16:45:59;3.33;;;2.00;;
3849;SDS011;1940;51.052;13.678;2022-09-09T16:48:33;9.00;;;2.57;;
3849;SDS011;1940;51.052;13.678;2022-09-09T16:51:01;4.60;;;2.20;;
3849;SDS011;1940;51.052;13.678;2022-09-09T16:53:39;4.00;;;2.17;;
3849;SDS011;1940;51.052;13.678;2022-09-09T16:56:08;5.70;;;2.30;;
3849;SDS011;1940;51.052;13.678;2022-09-09T16:58:35;5.23;;;2.10;;
3849;SDS011;1940;51.052;13.678;2022-09-09T17:01:01;5.87;;;2.10;;
3849;SDS011;1940;51.052;13.678;2022-09-09T17:03:28;3.63;;;2.23;;
3849;SDS011;1940;51.052;13.678;2022-09-09T17:05:54;3.13;;;2.23;;
3849;SDS011;1940;51.052;13.678;2022-09-09T17:08:19;2.53;;;2.00;;
3849;SDS011;1940;51.052;13.678;2022-09-09T17:10:45;4.10;;;2.30;;
3849;SDS011;1940;51.052;13.678;2022-09-09T17:13:12;4.10;;;2.00;;
3849;SDS011;1940;51.052;13.678;2022-09-09T17:15:41;1.77;;;1.60;;